Time;durP1;ratioP1;P1;durP2;ratioP2;P2;SDS_P1;SDS_P2;PMS_P1;PMS_P2;Temp;Humidity;BMP_temperature;BMP_pressure;BME280_temperature;BME280_humidity;BME280_pressure;Samples;Min_cycle;Max_cycle;Signal;HPM_P1;HPM_P2
2022/06/15 00:01:25;;;;;;;21.27;12.32;;;12.10;99.90;;;;;;5093024;28;20052;-67
2022/06/15 00:03:52;;;;;;;15.65;10.90;;;12.10;99.90;;;;;;5093122;28;20043;-67
2022/06/15 00:06:24;;;;;;;19.25;12.57;;;12.00;99.90;;;;;;5092805;28;20097;-67
2022/06/15 00:08:52;;;;;;;18.13;11.93;;;12.00;99.90;;;;;;5093207;28;20048;-67
2022/06/15 00:11:31;;;;;;;19.58;12.57;;;12.00;99.90;;;;;;5091811;28;20446;-67
2022/06/15 00:14:03;;;;;;;15.45;11.73;;;12.00;99.90;;;;;;5094580;28;20072;-67
2022/06/15 00:16:29;;;;;;;18.50;12.32;;;12.00;99.90;;;;;;5095664;28;20046;-67
2022/06/15 00:18:55;;;;;;;18.02;12.32;;;12.00;99.90;;;;;;5097311;28;20115;-67
2022/06/15 00:21:22;;;;;;;20.00;12.38;;;12.00;99.90;;;;;;5095736;28;20047;-67
2022/06/15 00:23:48;;;;;;;18.42;13.07;;;11.90;99.90;;;;;;5095747;28;20044;-67
2022/06/15 00:26:14;;;;;;;16.83;12.00;;;11.90;99.90;;;;;;5077233;28;20048;-67
2022/06/15 00:28:41;;;;;;;19.60;11.90;;;11.90;99.90;;;;;;5095161;28;20371;-67
2022/06/15 00:31:07;;;;;;;14.13;11.68;;;11.90;99.90;;;;;;5078599;28;20040;-67
2022/06/15 00:33:33;;;;;;;15.27;11.77;;;11.80;99.90;;;;;;5095450;28;20043;-67
2022/06/15 00:36:05;;;;;;;16.70;12.35;;;11.80;99.90;;;;;;5096783;28;20476;-67
2022/06/15 00:38:37;;;;;;;17.45;12.20;;;11.70;99.90;;;;;;5095393;28;20492;-67
2022/06/15 00:41:05;;;;;;;19.55;12.38;;;11.70;99.90;;;;;;5096814;28;20372;-67
2022/06/15 00:43:41;;;;;;;15.73;12.43;;;11.70;99.90;;;;;;5095533;28;20087;-68
2022/06/15 00:46:34;;;;;;;15.88;12.25;;;11.70;99.90;;;;;;5095061;28;20063;-67
2022/06/15 00:49:18;;;;;;;16.15;11.85;;;11.70;99.90;;;;;;5096471;28;20104;-67
2022/06/15 00:51:46;;;;;;;20.23;12.27;;;11.70;99.90;;;;;;5096355;28;20043;-67
2022/06/15 00:54:13;;;;;;;17.08;12.00;;;11.70;99.90;;;;;;5096302;28;20072;-67
2022/06/15 00:56:39;;;;;;;16.67;11.52;;;11.70;99.90;;;;;;5094285;28;20442;-67
2022/06/15 00:59:11;;;;;;;18.70;11.88;;;11.70;99.90;;;;;;5096523;28;20058;-67
2022/06/15 01:01:37;;;;;;;22.75;12.90;;;11.70;99.90;;;;;;5095176;28;20373;-67
2022/06/15 01:04:05;;;;;;;14.50;9.70;;;11.70;99.90;;;;;;5095307;28;20105;-67
2022/06/15 01:06:46;;;;;;;14.27;8.90;;;11.60;99.90;;;;;;5096045;28;20047;-67
2022/06/15 01:09:24;;;;;;;16.23;11.10;;;11.60;99.90;;;;;;5094949;28;20522;-67
2022/06/15 01:11:55;;;;;;;14.57;11.27;;;11.50;99.90;;;;;;5094995;28;20036;-67
2022/06/15 01:14:46;;;;;;;17.27;12.13;;;11.50;99.90;;;;;;5077909;28;20044;-67
2022/06/15 01:17:21;;;;;;;15.45;11.27;;;11.50;99.90;;;;;;5077893;28;20139;-68
2022/06/15 01:20:11;;;;;;;14.77;10.13;;;11.50;99.90;;;;;;5094699;28;20123;-67
2022/06/15 01:23:06;;;;;;;13.50;10.38;;;11.50;99.90;;;;;;5095910;28;20052;-67
2022/06/15 01:26:22;;;;;;;15.20;11.20;;;11.40;99.90;;;;;;5094576;28;20048;-67
2022/06/15 01:28:53;;;;;;;16.48;11.05;;;11.40;99.90;;;;;;5060941;28;20051;-67
2022/06/15 01:31:41;;;;;;;17.33;10.27;;;11.40;99.90;;;;;;5094781;28;20089;-67
2022/06/15 01:34:12;;;;;;;14.15;9.02;;;11.40;99.90;;;;;;5077694;28;20074;-67
2022/06/15 01:36:47;;;;;;;17.83;10.27;;;11.40;99.90;;;;;;5094621;28;20396;-67
2022/06/15 01:39:28;;;;;;;16.63;9.70;;;11.40;99.90;;;;;;5077445;28;20055;-67
2022/06/15 01:42:11;;;;;;;18.23;10.38;;;11.40;99.90;;;;;;5094126;28;20048;-67
2022/06/15 01:44:40;;;;;;;12.77;9.38;;;11.40;99.90;;;;;;5093976;28;20541;-67
2022/06/15 01:47:12;;;;;;;14.48;9.95;;;11.40;99.90;;;;;;5094275;28;20079;-67
2022/06/15 01:49:53;;;;;;;15.35;10.07;;;11.40;99.90;;;;;;5095499;28;20080;-67
2022/06/15 01:52:22;;;;;;;17.13;10.68;;;11.40;99.90;;;;;;5093978;28;20092;-67
2022/06/15 01:55:05;;;;;;;17.98;9.82;;;11.30;99.90;;;;;;5094104;28;20036;-67
2022/06/15 01:57:34;;;;;;;16.70;10.55;;;11.30;99.90;;;;;;5092004;28;20040;-67
2022/06/15 02:00:13;;;;;;;16.38;9.30;;;11.20;99.90;;;;;;5095308;28;20048;-67
2022/06/15 02:02:58;;;;;;;11.98;8.02;;;11.20;99.90;;;;;;5094001;28;20038;-67
2022/06/15 02:05:33;;;;;;;11.75;9.50;;;11.20;99.90;;;;;;5093780;28;20103;-67
2022/06/15 02:08:08;;;;;;;11.65;8.60;;;11.20;99.90;;;;;;5093647;28;20131;-67
2022/06/15 02:10:47;;;;;;;13.70;8.93;;;11.20;99.90;;;;;;5093773;28;20123;-67
2022/06/15 02:13:16;;;;;;;16.20;10.55;;;11.10;99.90;;;;;;5093557;28;20044;-67
2022/06/15 02:15:47;;;;;;;12.38;10.45;;;11.00;99.90;;;;;;5093542;28;20507;-67
2022/06/15 02:18:18;;;;;;;16.60;11.30;;;10.90;99.90;;;;;;5093705;28;20036;-68
2022/06/15 02:20:51;;;;;;;16.10;10.73;;;10.90;99.90;;;;;;5093691;28;20048;-67
2022/06/15 02:23:18;;;;;;;17.25;10.93;;;10.80;99.90;;;;;;5094694;28;20123;-67
2022/06/15 02:25:50;;;;;;;15.23;10.77;;;10.80;99.90;;;;;;5093310;28;20036;-67
2022/06/15 02:28:17;;;;;;;15.07;10.30;;;10.70;99.90;;;;;;5091174;28;20135;-67
2022/06/15 02:30:44;;;;;;;16.20;11.32;;;10.70;99.90;;;;;;5093306;28;20068;-67
2022/06/15 02:33:30;;;;;;;11.85;9.50;;;10.60;99.90;;;;;;5094542;28;20107;-67
2022/06/15 02:35:59;;;;;;;12.85;10.75;;;10.60;99.90;;;;;;5092972;28;20050;-67
2022/06/15 02:38:26;;;;;;;16.65;10.50;;;10.60;99.90;;;;;;5076404;28;20126;-67
2022/06/15 02:40:52;;;;;;;19.85;11.52;;;10.60;99.90;;;;;;5093303;28;20092;-67
2022/06/15 02:43:22;;;;;;;14.35;10.80;;;10.60;99.90;;;;;;5092977;28;20130;-67
2022/06/15 02:45:49;;;;;;;13.70;11.10;;;10.60;99.90;;;;;;5111551;28;20066;-67
2022/06/15 02:48:16;;;;;;;18.50;11.60;;;10.60;99.90;;;;;;5114521;28;20054;-67
2022/06/15 02:50:59;;;;;;;14.90;11.27;;;10.50;99.90;;;;;;5096525;28;20043;-67
2022/06/15 02:53:29;;;;;;;14.75;10.80;;;10.60;99.90;;;;;;5114520;28;20044;-67
2022/06/15 02:55:57;;;;;;;19.98;11.43;;;10.50;99.90;;;;;;5079381;28;20039;-67
2022/06/15 02:58:31;;;;;;;14.88;11.43;;;10.50;99.90;;;;;;5093906;28;20040;-67
2022/06/15 03:00:58;;;;;;;19.45;11.73;;;10.50;99.90;;;;;;5114348;28;20048;-67
2022/06/15 03:03:27;;;;;;;19.20;10.48;;;10.50;99.90;;;;;;5096202;28;20364;-67
2022/06/15 03:05:54;;;;;;;15.20;11.52;;;10.50;99.90;;;;;;5096085;28;20070;-67
2022/06/15 03:08:21;;;;;;;18.67;11.57;;;10.50;99.90;;;;;;5095938;28;20040;-67
2022/06/15 03:10:49;;;;;;;15.80;10.48;;;10.50;99.90;;;;;;5114110;28;20123;-67
2022/06/15 03:13:15;;;;;;;17.75;11.27;;;10.40;99.90;;;;;;5095646;28;20040;-67
2022/06/15 03:15:41;;;;;;;14.60;10.38;;;10.40;99.90;;;;;;5096118;28;20039;-67
2022/06/15 03:18:07;;;;;;;14.93;10.70;;;10.40;99.90;;;;;;5114254;28;20422;-67
2022/06/15 03:20:33;;;;;;;16.10;11.32;;;10.50;99.90;;;;;;5096076;28;20036;-67
2022/06/15 03:22:59;;;;;;;14.23;10.68;;;10.40;99.90;;;;;;5095700;28;20044;-68
2022/06/15 03:25:25;;;;;;;15.65;10.82;;;10.50;99.90;;;;;;5113858;28;20093;-67
2022/06/15 03:27:52;;;;;;;15.93;10.82;;;10.40;99.90;;;;;;5093607;28;20448;-67
2022/06/15 03:30:19;;;;;;;17.55;11.30;;;10.40;99.90;;;;;;5113620;28;20132;-67
2022/06/15 03:32:44;;;;;;;18.10;11.90;;;10.50;99.90;;;;;;5095667;28;20043;-67
2022/06/15 03:35:11;;;;;;;16.83;11.95;;;10.40;99.90;;;;;;5095653;28;20432;-67
2022/06/15 03:37:40;;;;;;;16.58;11.65;;;10.40;99.90;;;;;;5095735;28;20047;-67
2022/06/15 03:40:08;;;;;;;16.50;10.15;;;10.40;99.90;;;;;;5113772;28;20118;-67
2022/06/15 03:42:36;;;;;;;17.48;11.00;;;10.40;99.90;;;;;;5113561;28;20669;-67
2022/06/15 03:45:02;;;;;;;16.65;11.40;;;10.40;99.90;;;;;;5113408;28;20039;-67
2022/06/15 03:47:28;;;;;;;20.48;12.13;;;10.40;99.90;;;;;;5094916;28;20036;-67
2022/06/15 03:49:55;;;;;;;15.93;11.48;;;10.40;99.90;;;;;;5078461;28;20035;-67
2022/06/15 03:52:23;;;;;;;15.73;10.95;;;10.40;99.90;;;;;;5095257;28;20568;-67
2022/06/15 03:54:50;;;;;;;16.23;10.15;;;10.40;99.90;;;;;;5113593;28;20111;-67
2022/06/15 03:57:19;;;;;;;16.17;8.90;;;10.40;99.90;;;;;;5111263;28;20073;-67
2022/06/15 03:59:45;;;;;;;17.65;8.70;;;10.50;99.90;;;;;;5095038;28;20483;-67
2022/06/15 04:02:11;;;;;;;14.82;8.68;;;10.60;99.90;;;;;;5113397;28;20047;-68
2022/06/15 04:04:37;;;;;;;13.77;9.43;;;10.70;99.90;;;;;;5078061;28;20040;-67
2022/06/15 04:07:05;;;;;;;16.65;10.20;;;10.70;99.90;;;;;;5113565;28;20032;-68
2022/06/15 04:09:31;;;;;;;12.43;9.65;;;10.90;99.90;;;;;;5095011;28;20036;-68
2022/06/15 04:12:02;;;;;;;15.52;10.10;;;10.90;99.90;;;;;;5095017;28;20054;-68
2022/06/15 04:14:33;;;;;;;15.57;9.73;;;11.00;99.90;;;;;;5113131;28;20376;-67
2022/06/15 04:16:59;;;;;;;14.13;8.90;;;11.00;99.90;;;;;;5113508;28;20051;-68
2022/06/15 04:19:28;;;;;;;13.00;9.45;;;11.10;99.90;;;;;;5094842;28;20538;-67
2022/06/15 04:21:54;;;;;;;14.75;8.80;;;11.10;99.90;;;;;;5113209;28;20044;-68
2022/06/15 04:24:22;;;;;;;13.13;9.55;;;11.10;99.90;;;;;;5113222;28;20043;-68
2022/06/15 04:26:49;;;;;;;11.45;8.95;;;11.20;99.90;;;;;;5110834;28;20042;-68
2022/06/15 04:29:16;;;;;;;13.95;9.18;;;11.20;99.90;;;;;;5112942;28;20073;-67
2022/06/15 04:31:42;;;;;;;13.57;9.48;;;11.10;99.90;;;;;;5113180;28;20529;-68
2022/06/15 04:34:12;;;;;;;14.25;8.80;;;11.20;99.90;;;;;;5094827;28;20124;-68
2022/06/15 04:36:40;;;;;;;11.55;8.43;;;11.10;99.90;;;;;;5095123;28;20073;-68
2022/06/15 04:39:11;;;;;;;17.45;9.05;;;11.10;99.90;;;;;;5094864;28;20483;-68
2022/06/15 04:41:38;;;;;;;15.52;9.27;;;11.20;99.90;;;;;;5094706;28;20051;-68
2022/06/15 04:44:09;;;;;;;13.77;9.45;;;11.20;99.90;;;;;;5094492;28;20103;-68
2022/06/15 04:46:36;;;;;;;15.32;9.48;;;11.20;99.90;;;;;;5113069;28;20412;-68
2022/06/15 04:49:02;;;;;;;20.00;9.90;;;11.30;99.90;;;;;;5094606;28;20031;-68
2022/06/15 04:51:29;;;;;;;17.52;9.38;;;11.30;99.90;;;;;;5094607;28;20075;-68
2022/06/15 04:53:58;;;;;;;14.63;9.35;;;11.30;99.90;;;;;;5094693;28;20031;-68
2022/06/15 04:56:25;;;;;;;14.10;9.57;;;11.40;99.90;;;;;;5110898;28;20039;-68
2022/06/15 04:58:51;;;;;;;14.30;8.80;;;11.50;99.90;;;;;;5114002;28;20380;-67
2022/06/15 05:01:17;;;;;;;17.33;8.88;;;11.60;99.90;;;;;;5116727;28;20042;-68
2022/06/15 05:03:43;;;;;;;14.10;9.20;;;11.70;99.90;;;;;;5098423;28;20052;-68
2022/06/15 05:06:21;;;;;;;15.75;8.30;;;11.90;99.90;;;;;;5098160;28;20082;-68
2022/06/15 05:08:47;;;;;;;13.82;8.07;;;12.10;99.90;;;;;;5116427;28;20536;-67
2022/06/15 05:11:13;;;;;;;13.40;8.05;;;12.20;99.90;;;;;;5116679;28;20454;-66
2022/06/15 05:13:39;;;;;;;11.77;7.78;;;12.30;99.90;;;;;;5081264;28;20075;-67
2022/06/15 05:16:05;;;;;;;9.55;7.28;;;12.50;99.90;;;;;;5079901;28;20069;-67
2022/06/15 05:18:31;;;;;;;13.93;7.88;;;12.60;99.90;;;;;;5098265;28;20119;-67
2022/06/15 05:21:00;;;;;;;13.45;7.15;;;12.70;99.90;;;;;;5112928;28;20476;-67
2022/06/15 05:23:26;;;;;;;11.63;7.05;;;12.80;99.90;;;;;;5098131;28;20168;-67
2022/06/15 05:25:52;;;;;;;9.35;7.50;;;12.90;99.90;;;;;;5080881;28;20596;-67
2022/06/15 05:28:18;;;;;;;12.20;7.18;;;12.90;99.90;;;;;;5095996;28;20110;-67
2022/06/15 05:30:45;;;;;;;10.00;7.05;;;13.00;99.90;;;;;;5097735;28;20149;-67
2022/06/15 05:33:11;;;;;;;11.38;6.65;;;13.10;99.90;;;;;;5097828;28;20048;-68
2022/06/15 05:35:38;;;;;;;11.90;6.95;;;13.20;99.90;;;;;;5115947;28;20051;-68
2022/06/15 05:38:05;;;;;;;10.20;6.65;;;13.40;99.90;;;;;;5115948;28;20075;-67
2022/06/15 05:40:32;;;;;;;12.77;7.35;;;13.50;99.90;;;;;;5116110;28;20058;-67
2022/06/15 05:42:57;;;;;;;12.35;6.60;;;13.60;99.90;;;;;;5097627;28;20047;-67
2022/06/15 05:45:23;;;;;;;7.38;5.47;;;13.70;99.90;;;;;;5115470;28;20078;-67
2022/06/15 05:47:49;;;;;;;10.10;5.75;;;13.80;99.90;;;;;;5097713;28;20081;-68
2022/06/15 05:50:15;;;;;;;12.43;6.03;;;13.90;99.90;;;;;;5097517;28;20043;-67
2022/06/15 05:52:41;;;;;;;9.70;5.82;;;14.20;99.90;;;;;;5115086;28;20446;-67
2022/06/15 05:55:08;;;;;;;12.13;5.75;;;14.30;99.90;;;;;;5114775;28;20111;-68
2022/06/15 05:57:34;;;;;;;12.43;5.63;;;14.50;99.90;;;;;;5112391;28;20369;-68
2022/06/15 06:00:03;;;;;;;13.75;6.68;;;14.60;99.90;;;;;;5096170;28;20509;-68
2022/06/15 06:02:29;;;;;;;12.23;6.28;;;14.60;99.90;;;;;;5096208;28;20509;-69
2022/06/15 06:04:55;;;;;;;10.23;5.22;;;14.70;99.90;;;;;;5096052;28;20126;-68
2022/06/15 06:07:22;;;;;;;14.88;5.72;;;14.80;99.90;;;;;;5096040;28;20044;-68
2022/06/15 06:09:48;;;;;;;12.18;5.63;;;14.90;99.90;;;;;;5096097;28;20160;-68
2022/06/15 06:12:14;;;;;;;11.02;5.00;;;15.10;99.90;;;;;;5078511;28;20495;-68
2022/06/15 06:14:42;;;;;;;12.02;4.80;;;15.20;99.90;;;;;;5114405;28;20119;-68
2022/06/15 06:17:09;;;;;;;12.13;5.10;;;15.40;99.90;;;;;;5095850;28;20043;-67
2022/06/15 06:19:35;;;;;;;11.43;4.90;;;15.50;99.90;;;;;;5114367;28;20039;-68
2022/06/15 06:22:01;;;;;;;28.80;5.63;;;15.80;99.90;;;;;;5114203;28;20039;-68
2022/06/15 06:24:27;;;;;;;7.97;4.70;;;15.90;99.90;;;;;;5095769;28;20096;-68
2022/06/15 06:27:00;;;;;;;6.72;3.17;;;16.10;99.90;;;;;;5111478;28;20214;-68
2022/06/15 06:29:28;;;;;;;5.90;3.20;;;16.30;99.90;;;;;;5095874;28;20092;-68
2022/06/15 06:31:57;;;;;;;7.47;3.00;;;16.60;99.90;;;;;;5095393;28;20046;-68
2022/06/15 06:34:24;;;;;;;8.73;3.30;;;16.90;99.90;;;;;;5095663;28;20040;-67
2022/06/15 06:36:49;;;;;;;5.78;3.15;;;17.10;99.90;;;;;;5095670;28;20088;-67
2022/06/15 06:39:19;;;;;;;10.35;3.65;;;17.40;99.90;;;;;;5095709;28;20445;-67
2022/06/15 06:41:45;;;;;;;13.70;3.70;;;17.70;99.90;;;;;;5113729;28;20078;-66
2022/06/15 06:44:12;;;;;;;5.00;2.97;;;17.90;99.90;;;;;;5113514;28;20475;-67
2022/06/15 06:46:42;;;;;;;6.13;2.90;;;18.00;99.90;;;;;;5113379;28;20039;-67
2022/06/15 06:49:08;;;;;;;6.93;3.40;;;18.20;99.90;;;;;;5095223;28;20047;-68
2022/06/15 06:51:35;;;;;;;8.90;3.72;;;18.40;99.90;;;;;;5113265;28;20043;-67
2022/06/15 06:54:03;;;;;;;9.93;3.50;;;18.50;99.90;;;;;;5095601;28;20031;-67
2022/06/15 06:56:29;;;;;;;6.45;3.13;;;18.60;99.90;;;;;;5110886;28;20589;-66
2022/06/15 06:58:54;;;;;;;6.70;2.88;;;18.80;99.90;;;;;;5095020;28;20075;-67
2022/06/15 07:01:20;;;;;;;5.35;3.08;;;19.00;99.90;;;;;;5095203;28;20130;-67
2022/06/15 07:03:47;;;;;;;6.93;3.38;;;19.30;99.90;;;;;;5113759;28;20361;-67
2022/06/15 07:06:13;;;;;;;6.10;3.60;;;19.60;99.90;;;;;;5096035;28;20047;-67
2022/06/15 07:08:39;;;;;;;5.28;2.75;;;19.80;99.90;;;;;;5114132;28;20146;-68
2022/06/15 07:11:16;;;;;;;4.90;2.90;;;20.00;99.90;;;;;;5113135;28;20035;-67
2022/06/15 07:13:43;;;;;;;8.82;3.15;;;20.20;99.90;;;;;;5113146;28;20061;-67
2022/06/15 07:16:13;;;;;;;4.60;2.60;;;20.40;99.90;;;;;;5094865;28;20122;-67
2022/06/15 07:18:39;;;;;;;6.30;2.60;;;20.50;99.90;;;;;;5094943;28;20047;-67
2022/06/15 07:21:11;;;;;;;5.65;3.03;;;20.70;99.90;;;;;;5113166;28;20043;-66
2022/06/15 07:23:38;;;;;;;7.65;2.40;;;20.70;99.90;;;;;;5094010;28;20040;-66
2022/06/15 07:26:10;;;;;;;6.93;2.85;;;20.80;99.90;;;;;;5094756;28;20415;-66
2022/06/15 07:28:36;;;;;;;6.72;3.15;;;21.00;99.90;;;;;;5110328;28;20035;-67
2022/06/15 07:31:02;;;;;;;5.30;2.55;;;21.20;99.90;;;;;;5094600;28;20153;-67
2022/06/15 07:33:28;;;;;;;6.03;2.47;;;21.20;99.90;;;;;;5112689;28;20047;-66
2022/06/15 07:35:55;;;;;;;5.40;2.95;;;21.20;99.90;;;;;;5094728;28;20434;-67
2022/06/15 07:38:20;;;;;;;7.63;3.38;;;21.20;99.90;;;;;;5112626;28;20123;-66
2022/06/15 07:40:48;;;;;;;5.72;2.42;;;21.20;99.90;;;;;;5094425;28;20123;-67
2022/06/15 07:43:14;;;;;;;6.07;2.42;;;21.20;99.90;;;;;;5112582;28;20404;-66
2022/06/15 07:45:40;;;;;;;4.40;2.33;;;21.30;99.90;;;;;;5077323;28;20043;-66
2022/06/15 07:50:51;;;;;;;5.05;2.50;;;21.80;99.90;;;;;;5094248;28;20043;-67
2022/06/15 07:53:17;;;;;;;6.03;2.67;;;22.00;99.90;;;;;;5094147;28;20039;-67
2022/06/15 07:55:46;;;;;;;5.53;2.50;;;22.10;99.90;;;;;;5094364;28;20478;-67
2022/06/15 07:58:13;;;;;;;7.40;3.47;;;22.00;99.90;;;;;;5091720;28;20050;-66
2022/06/15 08:00:44;;;;;;;4.65;2.72;;;21.90;99.90;;;;;;5094048;28;20126;-66
2022/06/15 08:03:10;;;;;;;6.70;2.30;;;21.80;99.90;;;;;;5093978;28;20035;-66
2022/06/15 08:05:42;;;;;;;7.00;3.17;;;21.90;99.90;;;;;;5092904;28;20039;-66
2022/06/15 08:08:15;;;;;;;4.30;2.63;;;22.10;99.90;;;;;;5093918;28;20494;-67
2022/06/15 08:10:41;;;;;;;6.03;3.13;;;22.10;99.90;;;;;;5094067;28;20035;-66
2022/06/15 08:13:08;;;;;;;7.03;3.00;;;22.20;99.90;;;;;;5112183;28;20526;-67
2022/06/15 08:15:35;;;;;;;6.43;2.85;;;22.20;99.90;;;;;;5112369;28;20074;-67
2022/06/15 08:18:05;;;;;;;10.25;2.75;;;22.30;99.90;;;;;;5128036;28;20069;-66
2022/06/15 08:20:36;;;;;;;5.32;2.45;;;22.50;99.90;;;;;;5112273;28;20040;-67
2022/06/15 08:23:15;;;;;;;4.68;2.33;;;22.70;99.90;;;;;;5094198;28;20429;-66
2022/06/15 08:25:47;;;;;;;6.65;2.38;;;22.80;99.90;;;;;;5093882;28;20043;-67
2022/06/15 08:28:16;;;;;;;7.10;3.15;;;23.10;99.90;;;;;;5091534;28;20055;-67
2022/06/15 08:30:42;;;;;;;5.75;2.90;;;23.30;99.90;;;;;;5110908;28;20043;-67
2022/06/15 08:33:09;;;;;;;9.73;3.10;;;23.50;99.90;;;;;;5093691;28;20043;-67
2022/06/15 08:35:36;;;;;;;4.57;2.78;;;23.40;99.90;;;;;;5116294;28;20127;-67
2022/06/15 08:38:08;;;;;;;6.90;2.92;;;22.80;99.90;;;;;;5116247;28;20040;-67
2022/06/15 08:40:51;;;;;;;6.22;3.17;;;22.40;99.90;;;;;;5116367;28;20074;-67
2022/06/15 08:44:01;;;;;;;7.47;3.53;;;22.30;99.90;;;;;;5114715;28;20050;-67
2022/06/15 08:46:46;;;;;;;7.72;3.17;;;22.10;99.90;;;;;;5036214;28;20045;-67
2022/06/15 08:49:15;;;;;;;9.70;3.35;;;21.70;99.90;;;;;;5115142;28;20127;-67
2022/06/15 08:51:44;;;;;;;5.43;2.97;;;21.40;99.90;;;;;;5097845;28;20182;-67
2022/06/15 08:54:18;;;;;;;6.05;3.38;;;21.30;99.90;;;;;;5080585;28;20039;-67
2022/06/15 08:56:56;;;;;;;4.88;2.65;;;21.40;99.90;;;;;;5095121;28;20040;-66
2022/06/15 08:59:45;;;;;;;3.97;2.50;;;21.70;99.90;;;;;;5115720;28;20044;-67
2022/06/15 09:02:13;;;;;;;10.77;2.65;;;21.70;99.90;;;;;;5115699;28;20078;-67
2022/06/15 09:04:59;;;;;;;3.75;2.50;;;21.60;99.90;;;;;;5080526;28;20093;-66
2022/06/15 09:07:49;;;;;;;5.90;2.50;;;21.60;99.90;;;;;;5097382;28;20093;-67
2022/06/15 09:10:32;;;;;;;23.05;3.53;;;21.80;99.90;;;;;;5097213;28;20512;-67
2022/06/15 09:13:20;;;;;;;7.60;2.92;;;22.00;99.90;;;;;;5115458;28;20047;-67
2022/06/15 09:15:51;;;;;;;4.13;2.20;;;21.80;99.90;;;;;;5097431;28;20146;-68
2022/06/15 09:18:32;;;;;;;5.32;2.28;;;22.10;99.90;;;;;;5115479;28;20044;-67
2022/06/15 09:21:06;;;;;;;5.13;2.58;;;22.60;99.90;;;;;;5097099;28;20046;-67
2022/06/15 09:23:34;;;;;;;8.80;2.40;;;23.10;99.90;;;;;;5097268;28;20470;-66
2022/06/15 09:26:17;;;;;;;9.82;2.45;;;23.40;99.90;;;;;;5096959;28;20077;-67
2022/06/15 09:28:48;;;;;;;4.65;2.00;;;23.50;97.80;;;;;;5112701;28;20039;-66
2022/06/15 09:31:35;;;;;;;5.38;1.85;;;23.60;97.30;;;;;;5115075;28;20079;-67
2022/06/15 09:34:05;;;;;;;4.88;2.10;;;23.90;97.30;;;;;;5096764;28;20483;-68
2022/06/15 09:36:34;;;;;;;;;;;24.30;97.20;;;;;;5097523;28;20052;-67
2022/06/15 09:39:00;;;;;;;5.75;2.00;;;24.60;97.30;;;;;;5115082;28;19955;-67
2022/06/15 09:41:37;;;;;;;4.15;1.80;;;24.70;94.80;;;;;;5096726;28;20047;-66
2022/06/15 09:44:30;;;;;;;4.35;2.08;;;24.80;92.70;;;;;;5096333;28;20530;-67
2022/06/15 09:47:24;;;;;;;5.75;2.00;;;24.80;90.10;;;;;;5113730;28;20054;-67
2022/06/15 09:49:59;;;;;;;3.42;1.80;;;24.70;92.10;;;;;;5115106;28;20036;-67
2022/06/15 09:52:25;;;;;;;4.35;1.73;;;25.00;93.50;;;;;;5079443;28;20047;-69
2022/06/15 09:55:12;;;;;;;5.47;2.33;;;25.10;90.80;;;;;;5114833;28;20039;-68
2022/06/15 09:57:40;;;;;;;6.53;1.88;;;25.20;85.90;;;;;;5093935;28;20487;-70
2022/06/15 10:00:10;;;;;;;4.88;1.73;;;25.20;88.90;;;;;;5096264;28;20035;-69
2022/06/15 10:02:39;;;;;;;3.95;1.90;;;25.20;88.70;;;;;;5096270;28;20122;-70
2022/06/15 10:05:14;;;;;;;4.50;1.88;;;25.10;80.00;;;;;;5114867;28;20043;-68
2022/06/15 10:07:43;;;;;;;4.38;2.20;;;25.00;82.60;;;;;;5114431;28;20478;-66
2022/06/15 10:10:18;;;;;;;7.90;2.10;;;25.20;84.40;;;;;;5114504;28;20063;-67
2022/06/15 10:13:02;;;;;;;5.30;2.00;;;25.10;85.40;;;;;;5096084;28;20041;-67
2022/06/15 10:15:40;;;;;;;5.50;2.30;;;24.90;86.90;;;;;;5114161;28;20040;-66
2022/06/15 10:18:43;;;;;;;6.93;2.20;;;25.20;90.20;;;;;;5114434;28;20062;-68
2022/06/15 10:21:15;;;;;;;5.13;2.08;;;25.40;89.50;;;;;;5083125;28;20055;-67
2022/06/15 10:23:51;;;;;;;5.18;2.10;;;25.60;87.20;;;;;;5114104;28;20169;-67
2022/06/15 10:26:26;;;;;;;5.85;2.47;;;25.70;84.40;;;;;;5078809;28;20100;-67
2022/06/15 10:28:52;;;;;;;5.47;2.13;;;25.90;78.90;;;;;;5094910;28;20040;-66
2022/06/15 10:31:30;;;;;;;5.03;1.60;;;26.00;79.80;;;;;;5095696;28;20035;-66
2022/06/15 10:33:57;;;;;;;5.82;2.30;;;26.10;82.80;;;;;;5113891;28;20043;-67
2022/06/15 10:36:30;;;;;;;4.50;1.90;;;25.80;78.10;;;;;;5094503;28;20051;-68
2022/06/15 10:39:29;;;;;;;5.82;1.90;;;25.30;77.20;;;;;;5114395;28;20088;-67
2022/06/15 10:42:28;;;;;;;4.53;2.50;;;24.80;79.90;;;;;;5096272;28;20044;-67
2022/06/15 10:44:58;;;;;;;4.97;2.17;;;24.10;81.50;;;;;;5095489;28;20460;-69
2022/06/15 10:47:40;;;;;;;4.90;2.28;;;23.30;84.00;;;;;;5113827;28;20507;-67
2022/06/15 10:50:17;;;;;;;6.05;2.35;;;22.90;86.50;;;;;;5095299;28;20031;-71
2022/06/15 10:52:52;;;;;;;6.70;2.03;;;23.00;88.50;;;;;;5095151;28;20039;-70
2022/06/15 11:04:11;;;;;;;5.13;1.98;;;24.20;85.50;;;;;;5094986;28;20044;-70
2022/06/15 11:06:53;;;;;;;11.25;2.22;;;24.30;84.90;;;;;;5094880;28;20050;-67
2022/06/15 11:09:26;;;;;;;5.45;1.90;;;24.40;85.60;;;;;;5095035;28;20499;-69
2022/06/15 11:11:53;;;;;;;4.55;1.60;;;24.50;83.90;;;;;;5077296;28;20291;-69
2022/06/15 11:14:27;;;;;;;4.60;2.40;;;24.80;85.60;;;;;;5095501;28;20039;-68
2022/06/15 11:19:56;;;;;;;4.45;2.15;;;25.40;78.50;;;;;;5113557;28;20058;-69
2022/06/15 11:22:25;;;;;;;4.00;1.75;;;25.50;79.70;;;;;;5095474;28;20235;-69
2022/06/15 11:24:58;;;;;;;4.75;1.83;;;25.70;84.10;;;;;;5113637;28;20035;-69
2022/06/15 11:28:00;;;;;;;5.45;2.20;;;26.00;82.40;;;;;;5092851;28;20075;-70
2022/06/15 11:30:36;;;;;;;3.88;1.90;;;26.10;69.40;;;;;;5095250;28;20050;-69
2022/06/15 11:33:27;;;;;;;3.42;1.92;;;26.00;71.20;;;;;;5095236;28;20044;-68
2022/06/15 11:36:00;;;;;;;4.15;2.22;;;26.10;70.10;;;;;;5098675;28;20075;-70
2022/06/15 11:38:38;;;;;;;4.57;2.42;;;26.10;73.70;;;;;;5094935;28;20047;-68
2022/06/15 11:41:19;;;;;;;4.95;2.20;;;26.00;73.70;;;;;;5113052;28;20079;-70
2022/06/15 11:43:47;;;;;;;6.10;1.70;;;25.80;78.20;;;;;;5094892;28;20039;-70
2022/06/15 11:46:31;;;;;;;6.00;1.90;;;25.80;75.20;;;;;;5094918;28;20460;-70
2022/06/15 11:49:23;;;;;;;5.32;2.00;;;25.80;76.50;;;;;;5095274;28;20277;-70
2022/06/15 11:52:08;;;;;;;4.47;1.80;;;25.90;74.30;;;;;;5103593;28;20036;-70
2022/06/15 11:55:16;;;;;;;3.80;1.73;;;25.90;70.60;;;;;;5078060;28;20068;-69
2022/06/15 11:58:01;;;;;;;4.03;1.63;;;25.90;72.80;;;;;;5092686;28;20081;-71
2022/06/15 12:00:38;;;;;;;7.07;1.88;;;25.80;74.00;;;;;;5113024;28;20035;-71
2022/06/15 12:03:22;;;;;;;4.07;1.77;;;25.80;76.10;;;;;;5113040;28;20075;-70
2022/06/15 12:05:56;;;;;;;6.20;1.83;;;25.90;72.60;;;;;;5112093;28;20079;-68
2022/06/15 12:08:59;;;;;;;3.22;1.50;;;25.90;74.20;;;;;;5093622;28;20039;-71
2022/06/15 12:14:43;;;;;;;4.07;1.65;;;25.80;77.10;;;;;;5094052;28;20040;-70
2022/06/15 12:17:40;;;;;;;4.38;1.90;;;25.80;74.60;;;;;;5094170;28;20051;-70
2022/06/15 12:20:36;;;;;;;5.38;2.05;;;25.90;74.20;;;;;;5094028;28;20044;-69
2022/06/15 12:23:11;;;;;;;4.47;2.10;;;26.00;71.90;;;;;;5094250;28;20113;-69
2022/06/15 12:25:51;;;;;;;4.13;1.75;;;25.90;72.10;;;;;;5093792;28;20044;-67
2022/06/15 12:28:36;;;;;;;4.05;1.58;;;25.80;73.80;;;;;;5095642;28;20070;-67
2022/06/15 12:31:10;;;;;;;5.45;1.83;;;25.80;70.90;;;;;;5092927;28;20513;-66
2022/06/15 12:34:02;;;;;;;4.75;1.80;;;25.60;71.90;;;;;;5093914;28;20044;-69
2022/06/15 12:36:38;;;;;;;4.10;1.60;;;25.60;73.10;;;;;;5112148;28;20043;-69
2022/06/15 12:39:18;;;;;;;4.93;2.00;;;25.60;71.40;;;;;;5112215;28;20071;-69
2022/06/15 12:44:38;;;;;;;3.92;2.05;;;24.80;72.50;;;;;;5111825;28;20051;-69
2022/06/15 12:47:10;;;;;;;3.28;1.75;;;24.40;72.70;;;;;;5111905;28;20044;-70
2022/06/15 12:49:45;;;;;;;5.60;1.80;;;23.90;72.10;;;;;;5111997;28;20039;-70
2022/06/15 12:52:26;;;;;;;5.50;2.38;;;23.60;75.00;;;;;;5111963;28;20150;-67
2022/06/15 12:55:23;;;;;;;3.58;1.85;;;23.70;76.70;;;;;;5111910;28;20040;-68
2022/06/15 12:58:03;;;;;;;5.28;2.20;;;23.90;80.80;;;;;;5091251;28;20067;-69
2022/06/15 13:00:51;;;;;;;6.55;2.40;;;24.20;81.90;;;;;;5093890;28;20093;-69
2022/06/15 13:03:32;;;;;;;6.55;2.00;;;24.50;81.30;;;;;;5111714;28;20499;-70
2022/06/15 13:06:21;;;;;;;7.05;1.70;;;24.70;78.10;;;;;;5076576;28;20067;-69
2022/06/15 13:08:57;;;;;;;;;;;24.70;76.20;;;;;;5094264;28;20039;-69
2022/06/15 13:11:23;;;;;;;6.78;2.78;;;24.70;80.20;;;;;;5111834;28;19920;-75
2022/06/15 13:13:52;;;;;;;4.80;1.83;;;24.70;77.60;;;;;;5093531;28;20043;-71
2022/06/15 13:16:39;;;;;;;4.18;2.00;;;24.70;77.90;;;;;;5111701;28;20043;-69
2022/06/15 13:19:09;;;;;;;6.63;1.92;;;24.70;79.50;;;;;;5093410;28;20126;-69
2022/06/15 13:22:07;;;;;;;7.30;2.28;;;24.70;77.90;;;;;;5095666;28;20047;-70
2022/06/15 13:25:05;;;;;;;5.90;1.67;;;24.70;78.70;;;;;;5059417;28;20047;-69
2022/06/15 13:27:38;;;;;;;4.95;2.05;;;24.60;76.10;;;;;;5094523;28;20050;-68
2022/06/15 13:30:17;;;;;;;6.53;2.22;;;24.60;74.90;;;;;;5115083;28;20503;-71